Time;durP1;ratioP1;P1;durP2;ratioP2;P2;SDS_P1;SDS_P2;PMS_P1;PMS_P2;Temp;Humidity;BMP_temperature;BMP_pressure;BME280_temperature;BME280_humidity;BME280_pressure;Samples;Min_cycle;Max_cycle;Signal;HPM_P1;HPM_P2
2023/12/14 00:00:37;;;;;;;0.10;0.10;;;;;;;;;;1737703;28;20335;-64
2023/12/14 00:01:28;;;;;;;0.00;0.00;;;;;;;;;;1738822;28;20499;-65
2023/12/14 00:02:19;;;;;;;0.20;0.20;;;;;;;;;;1738822;28;20675;-66
2023/12/14 00:03:11;;;;;;;0.10;0.10;;;;;;;;;;1739255;28;20575;-64
2023/12/14 00:04:03;;;;;;;0.00;0.00;;;;;;;;;;1738773;28;20214;-64
2023/12/14 00:04:55;;;;;;;0.00;0.00;;;;;;;;;;1737812;28;20269;-63
2023/12/14 00:05:46;;;;;;;0.00;0.00;;;;;;;;;;1737406;28;20234;-64
2023/12/14 00:06:39;;;;;;;0.00;0.00;;;;;;;;;;1736187;28;20205;-65
2023/12/14 00:07:31;;;;;;;0.00;0.00;;;;;;;;;;1738314;28;20238;-63
2023/12/14 00:08:22;;;;;;;0.20;0.20;;;;;;;;;;1739499;28;20203;-64
2023/12/14 00:09:13;;;;;;;0.22;0.22;;;;;;;;;;1739163;28;20253;-64
2023/12/14 00:10:05;;;;;;;0.00;0.00;;;;;;;;;;1739032;28;20269;-65
2023/12/14 00:10:56;;;;;;;0.08;0.08;;;;;;;;;;1737589;28;20337;-63
2023/12/14 00:11:48;;;;;;;0.00;0.00;;;;;;;;;;1738819;28;20202;-64
2023/12/14 00:12:39;;;;;;;0.00;0.00;;;;;;;;;;1738718;28;20746;-64
2023/12/14 00:13:30;;;;;;;0.00;0.00;;;;;;;;;;1739064;28;20728;-64
2023/12/14 00:14:22;;;;;;;0.00;0.00;;;;;;;;;;1738547;28;20668;-64
2023/12/14 00:15:13;;;;;;;0.00;0.00;;;;;;;;;;1738827;28;20207;-64
2023/12/14 00:16:05;;;;;;;0.10;0.10;;;;;;;;;;1737636;28;20281;-64
2023/12/14 00:16:58;;;;;;;0.00;0.00;;;;;;;;;;1739121;28;20199;-64
2023/12/14 00:17:49;;;;;;;0.10;0.10;;;;;;;;;;1737839;28;20207;-64
2023/12/14 00:18:40;;;;;;;0.08;0.08;;;;;;;;;;1735343;28;20199;-64
2023/12/14 00:19:32;;;;;;;0.20;0.20;;;;;;;;;;1738328;28;20581;-64
2023/12/14 00:20:23;;;;;;;0.00;0.00;;;;;;;;;;1737811;28;20267;-63
2023/12/14 00:21:14;;;;;;;0.15;0.15;;;;;;;;;;1737245;28;20256;-64
2023/12/14 00:22:08;;;;;;;0.10;0.10;;;;;;;;;;1738987;28;20295;-64
2023/12/14 00:22:59;;;;;;;0.03;0.03;;;;;;;;;;1738440;28;20218;-64
2023/12/14 00:23:51;;;;;;;0.00;0.00;;;;;;;;;;1739067;28;20226;-65
2023/12/14 00:24:42;;;;;;;0.00;0.00;;;;;;;;;;1738441;28;20296;-64
2023/12/14 00:25:35;;;;;;;0.00;0.00;;;;;;;;;;1737737;28;20213;-64
2023/12/14 00:26:26;;;;;;;0.10;0.10;;;;;;;;;;1738491;28;20211;-64
2023/12/14 00:27:17;;;;;;;0.00;0.00;;;;;;;;;;1738935;28;20203;-65
2023/12/14 00:28:08;;;;;;;0.20;0.20;;;;;;;;;;1739172;28;20305;-64
2023/12/14 00:28:59;;;;;;;0.10;0.10;;;;;;;;;;1738988;28;20727;-65
2023/12/14 00:29:51;;;;;;;0.00;0.00;;;;;;;;;;1738846;28;20622;-66
2023/12/14 00:30:42;;;;;;;0.05;0.05;;;;;;;;;;1737494;28;20237;-64
2023/12/14 00:31:33;;;;;;;0.00;0.00;;;;;;;;;;1738935;28;20206;-66
2023/12/14 00:32:24;;;;;;;0.00;0.00;;;;;;;;;;1738453;28;20207;-66
2023/12/14 00:33:16;;;;;;;0.10;0.10;;;;;;;;;;1739661;28;20291;-64
2023/12/14 00:34:07;;;;;;;0.10;0.10;;;;;;;;;;1738651;28;20258;-65
2023/12/14 00:34:59;;;;;;;0.10;0.10;;;;;;;;;;1738892;28;20218;-65
2023/12/14 00:35:51;;;;;;;0.00;0.00;;;;;;;;;;1737658;28;20230;-64
2023/12/14 00:36:42;;;;;;;0.00;0.00;;;;;;;;;;1738928;28;20264;-65
2023/12/14 00:37:36;;;;;;;0.00;0.00;;;;;;;;;;1738513;28;20693;-65
2023/12/14 00:38:27;;;;;;;0.10;0.10;;;;;;;;;;1739344;28;20294;-65
2023/12/14 00:39:18;;;;;;;0.00;0.00;;;;;;;;;;1739021;28;20212;-65
2023/12/14 00:40:09;;;;;;;0.00;0.00;;;;;;;;;;1738116;28;20199;-65
2023/12/14 00:41:01;;;;;;;0.00;0.00;;;;;;;;;;1735792;28;20231;-65
2023/12/14 00:41:52;;;;;;;0.00;0.00;;;;;;;;;;1739176;28;20214;-65
2023/12/14 00:42:44;;;;;;;0.10;0.10;;;;;;;;;;1738706;28;20706;-66
2023/12/14 00:43:36;;;;;;;0.08;0.08;;;;;;;;;;1739282;28;20211;-65
2023/12/14 00:44:27;;;;;;;0.10;0.10;;;;;;;;;;1738883;28;20286;-65
2023/12/14 00:45:19;;;;;;;0.10;0.10;;;;;;;;;;1738893;28;20713;-66
2023/12/14 00:46:11;;;;;;;0.10;0.10;;;;;;;;;;1736898;28;20764;-66
2023/12/14 00:47:03;;;;;;;0.10;0.10;;;;;;;;;;1738184;28;20235;-67
2023/12/14 00:47:54;;;;;;;0.00;0.00;;;;;;;;;;1738176;28;20260;-66
2023/12/14 00:48:46;;;;;;;0.00;0.00;;;;;;;;;;1736165;28;20577;-66
2023/12/14 00:49:37;;;;;;;0.05;0.05;;;;;;;;;;1737573;28;20207;-66
2023/12/14 00:50:28;;;;;;;0.00;0.00;;;;;;;;;;1738138;28;20214;-66
2023/12/14 00:51:20;;;;;;;0.05;0.05;;;;;;;;;;1738545;28;20234;-66
2023/12/14 00:52:11;;;;;;;0.00;0.00;;;;;;;;;;1739747;28;20630;-66
2023/12/14 00:53:03;;;;;;;0.10;0.10;;;;;;;;;;1738691;28;20217;-67
2023/12/14 00:53:55;;;;;;;0.00;0.00;;;;;;;;;;1738974;28;20209;-66
2023/12/14 00:54:46;;;;;;;0.00;0.00;;;;;;;;;;1738902;28;20202;-67
2023/12/14 00:55:37;;;;;;;0.00;0.00;;;;;;;;;;1737481;28;20791;-65
2023/12/14 00:56:29;;;;;;;0.10;0.10;;;;;;;;;;1738878;28;20236;-65
2023/12/14 00:57:20;;;;;;;0.10;0.10;;;;;;;;;;1738258;28;20368;-64
2023/12/14 00:58:13;;;;;;;0.00;0.00;;;;;;;;;;1739417;28;20256;-66
2023/12/14 00:59:04;;;;;;;0.00;0.00;;;;;;;;;;1738707;28;20498;-64
2023/12/14 00:59:56;;;;;;;0.00;0.00;;;;;;;;;;1738785;28;20240;-65
2023/12/14 01:00:47;;;;;;;0.08;0.08;;;;;;;;;;1737556;28;20280;-64
2023/12/14 01:01:38;;;;;;;0.00;0.00;;;;;;;;;;1738678;28;20257;-64
2023/12/14 01:02:30;;;;;;;0.00;0.00;;;;;;;;;;1738289;28;20315;-64
2023/12/14 01:03:21;;;;;;;0.00;0.00;;;;;;;;;;1738976;28;20202;-63
2023/12/14 01:04:13;;;;;;;0.00;0.00;;;;;;;;;;1738129;28;20317;-64
2023/12/14 01:05:04;;;;;;;0.00;0.00;;;;;;;;;;1738815;28;20266;-64
2023/12/14 01:05:55;;;;;;;0.00;0.00;;;;;;;;;;1736921;28;20234;-64
2023/12/14 01:06:47;;;;;;;0.03;0.03;;;;;;;;;;1738763;28;20892;-63
2023/12/14 01:07:38;;;;;;;0.10;0.10;;;;;;;;;;1738037;28;20222;-63
2023/12/14 01:08:31;;;;;;;0.00;0.00;;;;;;;;;;1738757;28;20286;-64
2023/12/14 01:09:23;;;;;;;0.00;0.00;;;;;;;;;;1738309;28;20210;-63
2023/12/14 01:10:14;;;;;;;0.00;0.00;;;;;;;;;;1738775;28;20210;-64
2023/12/14 01:11:05;;;;;;;0.10;0.10;;;;;;;;;;1737046;28;20244;-64
2023/12/14 01:11:57;;;;;;;0.00;0.00;;;;;;;;;;1738525;28;20690;-63
2023/12/14 01:12:48;;;;;;;0.00;0.00;;;;;;;;;;1738322;28;20203;-66
2023/12/14 01:13:39;;;;;;;0.00;0.00;;;;;;;;;;1738815;28;20231;-66
2023/12/14 01:14:31;;;;;;;0.15;0.15;;;;;;;;;;1738062;28;20199;-66
2023/12/14 01:15:22;;;;;;;0.00;0.00;;;;;;;;;;1737626;28;20608;-65
2023/12/14 01:16:14;;;;;;;0.00;0.00;;;;;;;;;;1738387;28;20276;-64
2023/12/14 01:17:05;;;;;;;0.20;0.20;;;;;;;;;;1730936;28;20671;-63
2023/12/14 01:17:56;;;;;;;0.03;0.03;;;;;;;;;;1736842;28;20633;-64
2023/12/14 01:18:48;;;;;;;0.00;0.00;;;;;;;;;;1738455;28;20582;-64
2023/12/14 01:19:40;;;;;;;0.03;0.03;;;;;;;;;;1738039;28;20207;-64
2023/12/14 01:20:31;;;;;;;0.00;0.00;;;;;;;;;;1737627;28;20305;-64
2023/12/14 01:21:23;;;;;;;0.00;0.00;;;;;;;;;;1736874;28;20195;-63
2023/12/14 01:22:14;;;;;;;0.05;0.05;;;;;;;;;;1738931;28;20194;-64
2023/12/14 01:23:05;;;;;;;0.00;0.00;;;;;;;;;;1738049;28;20255;-65
2023/12/14 01:24:00;;;;;;;0.00;0.00;;;;;;;;;;1738393;28;20233;-65
2023/12/14 01:24:51;;;;;;;0.00;0.00;;;;;;;;;;1738375;28;20681;-63
2023/12/14 01:25:43;;;;;;;0.00;0.00;;;;;;;;;;1737104;28;20348;-64
2023/12/14 01:26:34;;;;;;;0.00;0.00;;;;;;;;;;1738203;28;20693;-64
2023/12/14 01:27:25;;;;;;;0.25;0.25;;;;;;;;;;1737935;28;20376;-63
2023/12/14 01:28:17;;;;;;;0.00;0.00;;;;;;;;;;1739075;28;20627;-65
2023/12/14 01:29:08;;;;;;;0.10;0.10;;;;;;;;;;1738004;28;20252;-64
2023/12/14 01:29:59;;;;;;;0.00;0.00;;;;;;;;;;1738610;28;20217;-64
2023/12/14 01:30:51;;;;;;;0.00;0.00;;;;;;;;;;1736183;28;20222;-64
2023/12/14 01:31:42;;;;;;;0.05;0.05;;;;;;;;;;1738605;28;20207;-64
2023/12/14 01:32:33;;;;;;;0.10;0.10;;;;;;;;;;1737984;28;20261;-64
2023/12/14 01:33:25;;;;;;;0.00;0.00;;;;;;;;;;1738187;28;20346;-64
2023/12/14 01:34:17;;;;;;;0.00;0.00;;;;;;;;;;1738409;28;20436;-64
2023/12/14 01:35:08;;;;;;;0.10;0.10;;;;;;;;;;1738178;28;20236;-66
2023/12/14 01:36:00;;;;;;;0.00;0.00;;;;;;;;;;1727140;28;20239;-66
2023/12/14 01:36:51;;;;;;;0.00;0.00;;;;;;;;;;1725370;28;20713;-66
2023/12/14 01:37:42;;;;;;;0.10;0.10;;;;;;;;;;1725753;28;20633;-66
2023/12/14 01:38:34;;;;;;;0.00;0.00;;;;;;;;;;1725677;28;20284;-65
2023/12/14 01:39:26;;;;;;;0.00;0.00;;;;;;;;;;1726766;28;20220;-64
2023/12/14 01:40:19;;;;;;;0.00;0.00;;;;;;;;;;1724208;28;20255;-63
2023/12/14 01:41:11;;;;;;;0.00;0.00;;;;;;;;;;1730718;28;20207;-64
2023/12/14 01:42:02;;;;;;;0.00;0.00;;;;;;;;;;1731908;28;20245;-66
2023/12/14 01:42:54;;;;;;;0.10;0.10;;;;;;;;;;1731302;28;20211;-65
2023/12/14 01:43:45;;;;;;;0.20;0.20;;;;;;;;;;1731548;28;20258;-66
2023/12/14 01:44:36;;;;;;;0.20;0.20;;;;;;;;;;1731173;28;20222;-65
2023/12/14 01:45:28;;;;;;;0.20;0.20;;;;;;;;;;1730856;28;20203;-64
2023/12/14 01:46:19;;;;;;;0.00;0.00;;;;;;;;;;1731437;28;20231;-66
2023/12/14 01:47:10;;;;;;;0.08;0.08;;;;;;;;;;1731575;28;20211;-63
2023/12/14 01:48:02;;;;;;;0.00;0.00;;;;;;;;;;1729643;28;20199;-65
2023/12/14 01:48:53;;;;;;;0.00;0.00;;;;;;;;;;1729299;28;20207;-65
2023/12/14 01:49:44;;;;;;;0.10;0.10;;;;;;;;;;1731222;28;20202;-65
2023/12/14 01:50:36;;;;;;;0.20;0.20;;;;;;;;;;1733811;28;20255;-65
2023/12/14 01:51:27;;;;;;;0.00;0.00;;;;;;;;;;1737941;28;20202;-65
2023/12/14 01:52:19;;;;;;;0.00;0.00;;;;;;;;;;1738548;28;20528;-66
2023/12/14 01:53:10;;;;;;;0.00;0.00;;;;;;;;;;1738404;28;20213;-65
2023/12/14 01:54:01;;;;;;;0.10;0.10;;;;;;;;;;1737794;28;20738;-65
2023/12/14 01:54:58;;;;;;;0.10;0.10;;;;;;;;;;1738589;28;20748;-65
2023/12/14 01:55:49;;;;;;;0.00;0.00;;;;;;;;;;1736411;28;20237;-65
2023/12/14 01:56:40;;;;;;;0.10;0.10;;;;;;;;;;1738332;28;20261;-65
2023/12/14 01:57:32;;;;;;;0.10;0.10;;;;;;;;;;1737775;28;20233;-66
2023/12/14 01:58:25;;;;;;;0.10;0.10;;;;;;;;;;1738670;28;20217;-66
2023/12/14 01:59:16;;;;;;;0.00;0.00;;;;;;;;;;1734878;28;20633;-65
2023/12/14 02:00:08;;;;;;;0.00;0.00;;;;;;;;;;1738446;28;20269;-66
2023/12/14 02:01:04;;;;;;;0.22;0.22;;;;;;;;;;1736830;28;20784;-66
2023/12/14 02:01:56;;;;;;;0.00;0.00;;;;;;;;;;1738311;28;20238;-66
2023/12/14 02:02:48;;;;;;;0.00;0.00;;;;;;;;;;1737620;28;20288;-66
2023/12/14 02:03:44;;;;;;;0.10;0.10;;;;;;;;;;1738322;28;20733;-65
2023/12/14 02:04:35;;;;;;;0.15;0.15;;;;;;;;;;1737875;28;20717;-66
2023/12/14 02:05:27;;;;;;;0.05;0.05;;;;;;;;;;1737303;28;20252;-65
2023/12/14 02:06:18;;;;;;;0.20;0.20;;;;;;;;;;1738221;28;20298;-65
2023/12/14 02:07:09;;;;;;;0.10;0.10;;;;;;;;;;1737647;28;20213;-65
2023/12/14 02:08:01;;;;;;;0.10;0.10;;;;;;;;;;1737934;28;20221;-63
2023/12/14 02:08:53;;;;;;;0.20;0.20;;;;;;;;;;1738525;28;20642;-63
2023/12/14 02:09:44;;;;;;;0.17;0.17;;;;;;;;;;1738226;28;20230;-64
2023/12/14 02:10:37;;;;;;;0.00;0.00;;;;;;;;;;1737013;28;20287;-64
2023/12/14 02:11:28;;;;;;;0.00;0.00;;;;;;;;;;1738166;28;20423;-64
2023/12/14 02:12:20;;;;;;;0.10;0.10;;;;;;;;;;1738205;28;20677;-66
2023/12/14 02:13:11;;;;;;;0.00;0.00;;;;;;;;;;1738333;28;20297;-63
2023/12/14 02:14:04;;;;;;;0.20;0.20;;;;;;;;;;1738079;28;20222;-64
2023/12/14 02:14:57;;;;;;;0.20;0.20;;;;;;;;;;1738024;28;20259;-64
2023/12/14 02:15:48;;;;;;;0.10;0.10;;;;;;;;;;1736641;28;20652;-64
2023/12/14 02:16:39;;;;;;;0.00;0.00;;;;;;;;;;1738051;28;20731;-64
2023/12/14 02:17:31;;;;;;;0.10;0.10;;;;;;;;;;1737292;28;20239;-64
2023/12/14 02:18:22;;;;;;;0.00;0.00;;;;;;;;;;1738641;28;20616;-64
2023/12/14 02:19:14;;;;;;;0.10;0.10;;;;;;;;;;1737343;28;20640;-64
2023/12/14 02:20:06;;;;;;;0.10;0.10;;;;;;;;;;1738281;28;20208;-64
2023/12/14 02:20:57;;;;;;;0.10;0.10;;;;;;;;;;1736570;28;21636;-64
2023/12/14 02:21:49;;;;;;;0.00;0.00;;;;;;;;;;1737570;28;20314;-65
2023/12/14 02:22:50;;;;;;;0.00;0.00;;;;;;;;;;1737712;28;20237;-64
2023/12/14 02:23:44;;;;;;;0.20;0.20;;;;;;;;;;1738429;28;20204;-64
2023/12/14 02:24:35;;;;;;;0.03;0.03;;;;;;;;;;1737582;28;20275;-64
2023/12/14 02:25:26;;;;;;;0.10;0.10;;;;;;;;;;1736810;28;20253;-64
2023/12/14 02:26:18;;;;;;;0.20;0.20;;;;;;;;;;1738155;28;20218;-64
2023/12/14 02:27:09;;;;;;;0.00;0.00;;;;;;;;;;1741745;28;20216;-64
2023/12/14 02:28:01;;;;;;;0.10;0.10;;;;;;;;;;1737706;28;20209;-64
2023/12/14 02:28:52;;;;;;;0.00;0.00;;;;;;;;;;1738135;28;20213;-65
2023/12/14 02:29:43;;;;;;;0.10;0.10;;;;;;;;;;1737609;28;20230;-64
2023/12/14 02:30:35;;;;;;;0.20;0.20;;;;;;;;;;1736886;28;20232;-65
2023/12/14 02:31:26;;;;;;;0.10;0.10;;;;;;;;;;1737761;28;21091;-64
2023/12/14 02:32:17;;;;;;;0.20;0.20;;;;;;;;;;1731955;28;20199;-64
2023/12/14 02:33:09;;;;;;;0.08;0.08;;;;;;;;;;1737946;28;20321;-65
2023/12/14 02:34:00;;;;;;;0.20;0.20;;;;;;;;;;1737633;28;20260;-65
2023/12/14 02:34:51;;;;;;;0.00;0.00;;;;;;;;;;1738193;28;20210;-65
2023/12/14 02:35:44;;;;;;;0.00;0.00;;;;;;;;;;1736490;28;20237;-65
2023/12/14 02:36:35;;;;;;;0.10;0.10;;;;;;;;;;1738222;28;20739;-64
2023/12/14 02:37:26;;;;;;;0.10;0.10;;;;;;;;;;1737879;28;20863;-65
2023/12/14 02:38:19;;;;;;;0.22;0.22;;;;;;;;;;1738606;28;20746;-64
2023/12/14 02:39:10;;;;;;;0.10;0.10;;;;;;;;;;1736963;28;20210;-65
2023/12/14 02:40:03;;;;;;;0.30;0.30;;;;;;;;;;1737734;28;20273;-64
2023/12/14 02:40:54;;;;;;;0.05;0.05;;;;;;;;;;1736653;28;20610;-64
2023/12/14 02:41:46;;;;;;;0.20;0.20;;;;;;;;;;1737844;28;20582;-64
2023/12/14 02:42:37;;;;;;;0.10;0.10;;;;;;;;;;1737669;28;20324;-65
2023/12/14 02:43:29;;;;;;;0.10;0.10;;;;;;;;;;1738109;28;20214;-63
2023/12/14 02:44:20;;;;;;;0.00;0.00;;;;;;;;;;1737875;28;20231;-64
2023/12/14 02:45:11;;;;;;;0.10;0.10;;;;;;;;;;1738278;28;20264;-65
2023/12/14 02:46:03;;;;;;;0.13;0.13;;;;;;;;;;1736445;28;20637;-65
2023/12/14 02:46:54;;;;;;;0.10;0.10;;;;;;;;;;1738265;28;20715;-65
2023/12/14 02:47:47;;;;;;;0.10;0.10;;;;;;;;;;1736976;28;20759;-65
2023/12/14 02:48:38;;;;;;;0.10;0.10;;;;;;;;;;1734883;28;20686;-64
2023/12/14 02:49:29;;;;;;;0.00;0.00;;;;;;;;;;1737569;28;20737;-64
2023/12/14 02:50:21;;;;;;;0.00;0.00;;;;;;;;;;1737210;28;20294;-64
2023/12/14 02:51:13;;;;;;;0.00;0.00;;;;;;;;;;1737843;28;20213;-64
2023/12/14 02:52:04;;;;;;;0.00;0.00;;;;;;;;;;1737891;28;20448;-64
2023/12/14 02:52:56;;;;;;;0.20;0.20;;;;;;;;;;1737823;28;20287;-65
2023/12/14 02:53:49;;;;;;;0.00;0.00;;;;;;;;;;1738457;28;20210;-65
2023/12/14 02:54:41;;;;;;;0.05;0.05;;;;;;;;;;1737209;28;20242;-65
2023/12/14 02:55:32;;;;;;;0.10;0.10;;;;;;;;;;1736909;28;20260;-65
2023/12/14 02:56:23;;;;;;;0.10;0.10;;;;;;;;;;1737869;28;20688;-65
2023/12/14 02:57:15;;;;;;;0.20;0.20;;;;;;;;;;1738010;28;20219;-64
2023/12/14 02:58:06;;;;;;;0.00;0.00;;;;;;;;;;1737809;28;20251;-64
2023/12/14 02:58:58;;;;;;;0.10;0.10;;;;;;;;;;1737709;28;20203;-64
2023/12/14 02:59:49;;;;;;;0.13;0.13;;;;;;;;;;1737974;28;20290;-65
2023/12/14 03:00:40;;;;;;;0.20;0.20;;;;;;;;;;1736372;28;20231;-64
2023/12/14 03:01:32;;;;;;;0.00;0.00;;;;;;;;;;1738165;28;20292;-64
2023/12/14 03:02:23;;;;;;;0.00;0.00;;;;;;;;;;1737835;28;20208;-65
2023/12/14 03:03:14;;;;;;;0.08;0.08;;;;;;;;;;1738317;28;20632;-64
2023/12/14 03:04:08;;;;;;;0.10;0.10;;;;;;;;;;1737730;28;20210;-65
2023/12/14 03:04:59;;;;;;;0.10;0.10;;;;;;;;;;1736600;28;20203;-65
2023/12/14 03:05:50;;;;;;;0.10;0.10;;;;;;;;;;1736860;28;20628;-64
2023/12/14 03:06:42;;;;;;;0.00;0.00;;;;;;;;;;1737914;28;20211;-65
2023/12/14 03:07:33;;;;;;;0.00;0.00;;;;;;;;;;1737452;28;20309;-64
2023/12/14 03:08:24;;;;;;;0.00;0.00;;;;;;;;;;1738726;28;20209;-65
2023/12/14 03:09:18;;;;;;;0.10;0.10;;;;;;;;;;1737588;28;20225;-65
2023/12/14 03:10:10;;;;;;;0.10;0.10;;;;;;;;;;1736850;28;20211;-64
2023/12/14 03:11:02;;;;;;;0.20;0.20;;;;;;;;;;1736537;28;20231;-67
2023/12/14 03:11:53;;;;;;;0.00;0.00;;;;;;;;;;1738206;28;20653;-65
2023/12/14 03:12:44;;;;;;;0.13;0.13;;;;;;;;;;1737641;28;20703;-65
2023/12/14 03:13:36;;;;;;;0.30;0.30;;;;;;;;;;1738127;28;20788;-65
2023/12/14 03:14:27;;;;;;;0.10;0.10;;;;;;;;;;1738091;28;20209;-65
2023/12/14 03:15:18;;;;;;;0.20;0.20;;;;;;;;;;1736483;28;20206;-64
2023/12/14 03:16:10;;;;;;;0.10;0.10;;;;;;;;;;1736167;28;20218;-65
2023/12/14 03:17:02;;;;;;;0.22;0.22;;;;;;;;;;1737756;28;20259;-64
2023/12/14 03:17:53;;;;;;;0.10;0.10;;;;;;;;;;1736995;28;20275;-64
2023/12/14 03:18:45;;;;;;;0.00;0.00;;;;;;;;;;1738321;28;20286;-65
2023/12/14 03:19:36;;;;;;;0.00;0.00;;;;;;;;;;1737368;28;20252;-65
2023/12/14 03:20:28;;;;;;;0.00;0.00;;;;;;;;;;1737522;28;20240;-65
2023/12/14 03:21:19;;;;;;;0.00;0.00;;;;;;;;;;1736613;28;20215;-65
2023/12/14 03:22:10;;;;;;;0.00;0.00;;;;;;;;;;1736371;28;20238;-65
2023/12/14 03:23:02;;;;;;;0.00;0.00;;;;;;;;;;1737525;28;20305;-65
2023/12/14 03:23:53;;;;;;;0.00;0.00;;;;;;;;;;1738186;28;20546;-65
2023/12/14 03:24:46;;;;;;;0.10;0.10;;;;;;;;;;1737645;28;20284;-65
2023/12/14 03:25:37;;;;;;;0.10;0.10;;;;;;;;;;1736357;28;20467;-66
2023/12/14 03:26:28;;;;;;;0.00;0.00;;;;;;;;;;1738371;28;20213;-65
2023/12/14 03:27:22;;;;;;;0.10;0.10;;;;;;;;;;1742454;28;20237;-65
2023/12/14 03:28:13;;;;;;;0.00;0.00;;;;;;;;;;1738231;28;20261;-66
2023/12/14 03:29:05;;;;;;;0.10;0.10;;;;;;;;;;1737873;28;20254;-63
2023/12/14 03:29:56;;;;;;;0.10;0.10;;;;;;;;;;1736232;28;20203;-63
2023/12/14 03:30:48;;;;;;;0.10;0.10;;;;;;;;;;1736757;28;20781;-63
2023/12/14 03:31:39;;;;;;;0.10;0.10;;;;;;;;;;1737897;28;20322;-65
2023/12/14 03:32:30;;;;;;;0.13;0.13;;;;;;;;;;1737882;28;20210;-65
2023/12/14 03:33:22;;;;;;;0.10;0.10;;;;;;;;;;1738340;28;20214;-65
2023/12/14 03:34:13;;;;;;;0.00;0.00;;;;;;;;;;1737169;28;20218;-66
2023/12/14 03:35:05;;;;;;;0.10;0.10;;;;;;;;;;1738242;28;20209;-65
2023/12/14 03:35:57;;;;;;;0.20;0.20;;;;;;;;;;1736329;28;20289;-65
2023/12/14 03:36:48;;;;;;;0.20;0.20;;;;;;;;;;1738063;28;20621;-64
2023/12/14 03:37:40;;;;;;;0.00;0.00;;;;;;;;;;1737302;28;20223;-64
2023/12/14 03:38:31;;;;;;;0.10;0.10;;;;;;;;;;1738602;28;20209;-63
2023/12/14 03:39:22;;;;;;;0.00;0.00;;;;;;;;;;1735278;28;20207;-63
2023/12/14 03:40:16;;;;;;;0.00;0.00;;;;;;;;;;1738152;28;20873;-65
2023/12/14 03:41:07;;;;;;;0.20;0.20;;;;;;;;;;1736663;28;20697;-65
2023/12/14 03:41:59;;;;;;;0.20;0.20;;;;;;;;;;1738094;28;20621;-66
2023/12/14 03:42:50;;;;;;;0.00;0.00;;;;;;;;;;1737878;28;20475;-65
2023/12/14 03:43:41;;;;;;;0.22;0.22;;;;;;;;;;1738412;28;20299;-65
2023/12/14 03:44:33;;;;;;;0.00;0.00;;;;;;;;;;1737639;28;21016;-65
2023/12/14 03:45:24;;;;;;;0.10;0.10;;;;;;;;;;1737434;28;20218;-65
2023/12/14 03:46:15;;;;;;;0.00;0.00;;;;;;;;;;1737640;28;20216;-66
2023/12/14 03:47:07;;;;;;;0.00;0.00;;;;;;;;;;1738518;28;20591;-63
2023/12/14 03:47:58;;;;;;;0.00;0.00;;;;;;;;;;1736440;28;20290;-64
2023/12/14 03:48:49;;;;;;;0.10;0.10;;;;;;;;;;1735481;28;20206;-64
2023/12/14 03:49:41;;;;;;;0.15;0.15;;;;;;;;;;1737878;28;20210;-64
2023/12/14 03:50:33;;;;;;;0.10;0.10;;;;;;;;;;1737138;28;20210;-63
2023/12/14 03:51:24;;;;;;;0.10;0.10;;;;;;;;;;1738622;28;20203;-65
2023/12/14 03:52:16;;;;;;;0.00;0.00;;;;;;;;;;1738366;28;20214;-64
2023/12/14 03:53:07;;;;;;;0.10;0.10;;;;;;;;;;1738484;28;20276;-64
2023/12/14 03:53:58;;;;;;;0.10;0.10;;;;;;;;;;1738784;28;20271;-63
2023/12/14 03:54:50;;;;;;;0.00;0.00;;;;;;;;;;1739283;28;20204;-63
2023/12/14 03:55:43;;;;;;;0.10;0.10;;;;;;;;;;1738158;28;20622;-63
2023/12/14 03:56:34;;;;;;;0.03;0.03;;;;;;;;;;1739467;28;20232;-62
2023/12/14 03:57:26;;;;;;;0.20;0.20;;;;;;;;;;1739260;28;20229;-62
2023/12/14 03:58:17;;;;;;;0.10;0.10;;;;;;;;;;1740069;28;20211;-62
2023/12/14 03:59:09;;;;;;;0.00;0.00;;;;;;;;;;1739202;28;20266;-62
2023/12/14 04:00:00;;;;;;;0.00;0.00;;;;;;;;;;1739616;28;20566;-62
2023/12/14 04:00:52;;;;;;;0.00;0.00;;;;;;;;;;1737793;28;20230;-66
2023/12/14 04:01:43;;;;;;;0.10;0.10;;;;;;;;;;1739609;28;20526;-64
2023/12/14 04:02:34;;;;;;;0.20;0.20;;;;;;;;;;1739117;28;20210;-63
2023/12/14 04:03:25;;;;;;;0.00;0.00;;;;;;;;;;1739702;28;20753;-64
2023/12/14 04:04:17;;;;;;;0.10;0.10;;;;;;;;;;1739043;28;20926;-65
2023/12/14 04:05:09;;;;;;;0.10;0.10;;;;;;;;;;1739108;28;20303;-62
2023/12/14 04:06:01;;;;;;;0.15;0.15;;;;;;;;;;1737756;28;20236;-63
2023/12/14 04:06:52;;;;;;;0.10;0.10;;;;;;;;;;1739274;28;20661;-62
2023/12/14 04:07:43;;;;;;;0.10;0.10;;;;;;;;;;1738467;28;20249;-62
2023/12/14 04:08:35;;;;;;;0.10;0.10;;;;;;;;;;1739324;28;20223;-60
2023/12/14 04:09:26;;;;;;;0.20;0.20;;;;;;;;;;1739101;28;20643;-62
2023/12/14 04:10:17;;;;;;;0.10;0.10;;;;;;;;;;1738167;28;20275;-64
2023/12/14 04:11:10;;;;;;;0.00;0.00;;;;;;;;;;1738783;28;20363;-65
2023/12/14 04:12:01;;;;;;;0.10;0.10;;;;;;;;;;1739271;28;20274;-65
2023/12/14 04:12:53;;;;;;;0.00;0.00;;;;;;;;;;1738893;28;20202;-65
2023/12/14 04:13:44;;;;;;;0.00;0.00;;;;;;;;;;1741562;28;20796;-65
2023/12/14 04:14:35;;;;;;;0.10;0.10;;;;;;;;;;1741391;28;20223;-64
2023/12/14 04:15:27;;;;;;;0.00;0.00;;;;;;;;;;1740091;28;20208;-65
2023/12/14 04:16:19;;;;;;;0.00;0.00;;;;;;;;;;1740484;28;20310;-65
2023/12/14 04:17:12;;;;;;;0.08;0.08;;;;;;;;;;1737252;28;20259;-66
2023/12/14 04:18:03;;;;;;;0.08;0.08;;;;;;;;;;1738356;28;20211;-65
2023/12/14 04:18:56;;;;;;;0.10;0.10;;;;;;;;;;1738934;28;20463;-63
2023/12/14 04:19:47;;;;;;;0.00;0.00;;;;;;;;;;1738347;28;20207;-62
2023/12/14 04:20:39;;;;;;;0.00;0.00;;;;;;;;;;1737689;28;20290;-63
2023/12/14 04:21:30;;;;;;;0.00;0.00;;;;;;;;;;1738278;28;20216;-65
2023/12/14 04:22:21;;;;;;;0.00;0.00;;;;;;;;;;1738620;28;20207;-64
2023/12/14 04:23:13;;;;;;;0.00;0.00;;;;;;;;;;1739182;28;20298;-65
2023/12/14 04:24:04;;;;;;;0.10;0.10;;;;;;;;;;1738467;28;20217;-65
2023/12/14 04:24:56;;;;;;;0.00;0.00;;;;;;;;;;1738720;28;20284;-63
2023/12/14 04:25:47;;;;;;;0.05;0.05;;;;;;;;;;1737177;28;20290;-62
2023/12/14 04:26:40;;;;;;;0.10;0.10;;;;;;;;;;1738973;28;20249;-63
2023/12/14 04:27:31;;;;;;;0.10;0.10;;;;;;;;;;1738706;28;20276;-63
2023/12/14 04:28:22;;;;;;;0.10;0.10;;;;;;;;;;1739065;28;20626;-64
2023/12/14 04:29:14;;;;;;;0.00;0.00;;;;;;;;;;1738689;28;20253;-64
2023/12/14 04:30:10;;;;;;;0.10;0.10;;;;;;;;;;1738737;28;20366;-64
2023/12/14 04:31:02;;;;;;;0.10;0.10;;;;;;;;;;1737468;28;20666;-64
2023/12/14 04:31:53;;;;;;;0.10;0.10;;;;;;;;;;1738873;28;20233;-64
2023/12/14 04:32:46;;;;;;;0.10;0.10;;;;;;;;;;1738261;28;20206;-64
2023/12/14 04:33:38;;;;;;;0.00;0.00;;;;;;;;;;1739033;28;20198;-64
2023/12/14 04:34:29;;;;;;;0.10;0.10;;;;;;;;;;1738499;28;20677;-64
2023/12/14 04:35:22;;;;;;;0.00;0.00;;;;;;;;;;1738979;28;20670;-64
2023/12/14 04:36:14;;;;;;;0.10;0.10;;;;;;;;;;1737561;28;20288;-64
2023/12/14 04:37:05;;;;;;;0.10;0.10;;;;;;;;;;1739163;28;20728;-64
2023/12/14 04:37:56;;;;;;;0.10;0.10;;;;;;;;;;1738529;28;20208;-64
2023/12/14 04:38:47;;;;;;;0.05;0.05;;;;;;;;;;1738933;28;20211;-64
2023/12/14 04:39:38;;;;;;;0.10;0.10;;;;;;;;;;1738437;28;20194;-64
2023/12/14 04:40:30;;;;;;;0.00;0.00;;;;;;;;;;1738135;28;20201;-64
2023/12/14 04:41:21;;;;;;;0.00;0.00;;;;;;;;;;1738621;28;20278;-64
2023/12/14 04:42:15;;;;;;;0.10;0.10;;;;;;;;;;1739314;28;20264;-64
2023/12/14 04:43:06;;;;;;;0.10;0.10;;;;;;;;;;1739253;28;20267;-64
2023/12/14 04:43:57;;;;;;;0.00;0.00;;;;;;;;;;1738877;28;20297;-63
2023/12/14 04:44:49;;;;;;;0.10;0.10;;;;;;;;;;1738790;28;20213;-64
2023/12/14 04:45:40;;;;;;;0.10;0.10;;;;;;;;;;1737543;28;20696;-63
2023/12/14 04:46:32;;;;;;;0.10;0.10;;;;;;;;;;1738983;28;20191;-64
2023/12/14 04:47:23;;;;;;;0.00;0.00;;;;;;;;;;1738126;28;20559;-64
2023/12/14 04:48:14;;;;;;;0.10;0.10;;;;;;;;;;1736129;28;20203;-64
2023/12/14 04:49:06;;;;;;;0.05;0.05;;;;;;;;;;1736851;28;20221;-64
2023/12/14 04:49:57;;;;;;;0.10;0.10;;;;;;;;;;1738913;28;20651;-64
2023/12/14 04:50:49;;;;;;;0.00;0.00;;;;;;;;;;1737018;28;20659;-63
2023/12/14 04:51:41;;;;;;;0.00;0.00;;;;;;;;;;1739199;28;20205;-63
2023/12/14 04:52:32;;;;;;;0.30;0.30;;;;;;;;;;1738709;28;20251;-64
2023/12/14 04:53:24;;;;;;;0.10;0.10;;;;;;;;;;1738740;28;20615;-64
2023/12/14 04:54:15;;;;;;;0.05;0.05;;;;;;;;;;1738416;28;20211;-65
2023/12/14 04:55:08;;;;;;;0.10;0.10;;;;;;;;;;1738605;28;20197;-63
2023/12/14 04:55:59;;;;;;;0.00;0.00;;;;;;;;;;1737372;28;20227;-64
2023/12/14 04:56:51;;;;;;;0.10;0.10;;;;;;;;;;1738798;28;20294;-63
2023/12/14 04:57:46;;;;;;;0.00;0.00;;;;;;;;;;1737976;28;20238;-64
2023/12/14 04:58:37;;;;;;;0.00;0.00;;;;;;;;;;1739311;28;20622;-64
2023/12/14 04:59:29;;;;;;;0.00;0.00;;;;;;;;;;1738516;28;20604;-64
2023/12/14 05:00:20;;;;;;;0.03;0.03;;;;;;;;;;1738375;28;20539;-64
2023/12/14 05:01:11;;;;;;;0.00;0.00;;;;;;;;;;1737685;28;20232;-64
2023/12/14 05:02:03;;;;;;;0.00;0.00;;;;;;;;;;1738946;28;20208;-66
2023/12/14 05:02:55;;;;;;;0.20;0.20;;;;;;;;;;1738332;28;20325;-66
2023/12/14 05:03:46;;;;;;;0.00;0.00;;;;;;;;;;1738762;28;20203;-65
2023/12/14 05:04:38;;;;;;;0.08;0.08;;;;;;;;;;1738592;28;20205;-66
2023/12/14 05:05:29;;;;;;;0.10;0.10;;;;;;;;;;1731359;28;20286;-66
2023/12/14 05:06:21;;;;;;;0.00;0.00;;;;;;;;;;1738059;28;20206;-65
2023/12/14 05:07:12;;;;;;;0.25;0.25;;;;;;;;;;1738800;28;20247;-65
2023/12/14 05:08:04;;;;;;;0.00;0.00;;;;;;;;;;1738398;28;20202;-65
2023/12/14 05:08:57;;;;;;;0.20;0.20;;;;;;;;;;1738743;28;20246;-62
2023/12/14 05:09:48;;;;;;;0.00;0.00;;;;;;;;;;1738248;28;20235;-64